sensor_id;sensor_type;location;lat;lon;timestamp;pressure;altitude;pressure_sealevel;temperature;humidity
71573;BME280;59408;51.032;9.410;2023-03-20T00:00:57;99156.53;;;6.06;100.00
71573;BME280;59408;51.032;9.410;2023-03-20T00:03:26;99163.56;;;6.07;100.00
71573;BME280;59408;51.032;9.410;2023-03-20T00:05:52;99164.47;;;6.03;100.00
71573;BME280;59408;51.032;9.410;2023-03-20T00:08:19;99160.78;;;5.99;100.00
71573;BME280;59408;51.032;9.410;2023-03-20T00:10:45;99165.19;;;5.95;100.00
71573;BME280;59408;51.032;9.410;2023-03-20T00:13:14;99166.41;;;5.89;100.00
71573;BME280;59408;51.032;9.410;2023-03-20T00:15:44;99168.75;;;5.82;100.00
71573;BME280;59408;51.032;9.410;2023-03-20T00:18:14;99161.34;;;5.73;100.00
71573;BME280;59408;51.032;9.410;2023-03-20T00:20:42;99166.84;;;5.68;100.00
71573;BME280;59408;51.032;9.410;2023-03-20T00:23:09;99168.06;;;5.62;100.00
71573;BME280;59408;51.032;9.410;2023-03-20T00:25:36;99163.06;;;5.56;100.00
71573;BME280;59408;51.032;9.410;2023-03-20T00:28:25;99171.78;;;5.53;100.00
71573;BME280;59408;51.032;9.410;2023-03-20T00:30:54;99179.69;;;5.49;100.00
71573;BME280;59408;51.032;9.410;2023-03-20T00:33:21;99178.91;;;5.49;100.00
71573;BME280;59408;51.032;9.410;2023-03-20T00:35:49;99182.41;;;5.49;100.00
71573;BME280;59408;51.032;9.410;2023-03-20T00:38:16;99187.22;;;5.52;100.00
71573;BME280;59408;51.032;9.410;2023-03-20T00:40:43;99185.03;;;5.54;100.00
71573;BME280;59408;51.032;9.410;2023-03-20T00:43:12;99187.91;;;5.58;100.00
71573;BME280;59408;51.032;9.410;2023-03-20T00:45:39;99185.19;;;5.58;100.00
71573;BME280;59408;51.032;9.410;2023-03-20T00:48:09;99182.00;;;5.56;100.00
71573;BME280;59408;51.032;9.410;2023-03-20T00:50:38;99184.69;;;5.56;100.00
71573;BME280;59408;51.032;9.410;2023-03-20T00:53:08;99179.09;;;5.52;100.00
71573;BME280;59408;51.032;9.410;2023-03-20T00:55:36;99185.81;;;5.55;100.00
71573;BME280;59408;51.032;9.410;2023-03-20T00:58:04;99181.22;;;5.55;100.00
71573;BME280;59408;51.032;9.410;2023-03-20T01:00:36;99176.78;;;5.59;100.00
71573;BME280;59408;51.032;9.410;2023-03-20T01:03:11;99184.31;;;5.62;100.00
71573;BME280;59408;51.032;9.410;2023-03-20T01:05:38;99185.09;;;5.63;100.00
71573;BME280;59408;51.032;9.410;2023-03-20T01:08:11;99178.91;;;5.62;100.00
71573;BME280;59408;51.032;9.410;2023-03-20T01:10:38;99180.00;;;5.61;100.00
71573;BME280;59408;51.032;9.410;2023-03-20T01:13:12;99178.38;;;5.60;100.00
71573;BME280;59408;51.032;9.410;2023-03-20T01:15:40;99175.47;;;5.57;100.00
71573;BME280;59408;51.032;9.410;2023-03-20T01:18:09;99186.63;;;5.55;100.00
71573;BME280;59408;51.032;9.410;2023-03-20T01:20:37;99173.41;;;5.54;100.00
71573;BME280;59408;51.032;9.410;2023-03-20T01:23:04;99178.31;;;5.52;100.00
71573;BME280;59408;51.032;9.410;2023-03-20T01:25:32;99178.09;;;5.48;100.00
71573;BME280;59408;51.032;9.410;2023-03-20T01:27:59;99171.88;;;5.48;100.00
71573;BME280;59408;51.032;9.410;2023-03-20T01:30:29;99175.22;;;5.45;100.00
71573;BME280;59408;51.032;9.410;2023-03-20T01:32:57;99176.00;;;5.45;100.00
71573;BME280;59408;51.032;9.410;2023-03-20T01:35:28;99177.41;;;5.43;100.00
71573;BME280;59408;51.032;9.410;2023-03-20T01:37:54;99170.69;;;5.40;100.00
71573;BME280;59408;51.032;9.410;2023-03-20T01:40:30;99174.50;;;5.39;100.00
71573;BME280;59408;51.032;9.410;2023-03-20T01:42:59;99175.59;;;5.38;100.00
71573;BME280;59408;51.032;9.410;2023-03-20T01:45:30;99175.91;;;5.36;100.00
71573;BME280;59408;51.032;9.410;2023-03-20T01:47:58;99176.38;;;5.38;100.00
71573;BME280;59408;51.032;9.410;2023-03-20T01:50:28;99169.06;;;5.39;100.00
71573;BME280;59408;51.032;9.410;2023-03-20T01:53:03;99174.19;;;5.41;100.00
71573;BME280;59408;51.032;9.410;2023-03-20T01:55:32;99167.97;;;5.40;100.00
71573;BME280;59408;51.032;9.410;2023-03-20T01:58:03;99169.06;;;5.39;100.00
71573;BME280;59408;51.032;9.410;2023-03-20T02:00:32;99176.38;;;5.38;100.00
71573;BME280;59408;51.032;9.410;2023-03-20T02:02:59;99170.81;;;5.35;100.00
71573;BME280;59408;51.032;9.410;2023-03-20T02:05:26;99175.41;;;5.34;100.00
71573;BME280;59408;51.032;9.410;2023-03-20T02:08:05;99167.28;;;5.34;100.00
71573;BME280;59408;51.032;9.410;2023-03-20T02:10:35;99173.50;;;5.35;100.00
71573;BME280;59408;51.032;9.410;2023-03-20T02:13:03;99187.84;;;5.35;100.00
71573;BME280;59408;51.032;9.410;2023-03-20T02:15:30;99192.13;;;5.36;100.00
71573;BME280;59408;51.032;9.410;2023-03-20T02:17:57;99188.31;;;5.37;100.00
71573;BME280;59408;51.032;9.410;2023-03-20T02:20:32;99195.31;;;5.38;100.00
71573;BME280;59408;51.032;9.410;2023-03-20T02:23:31;99196.94;;;5.39;100.00
71573;BME280;59408;51.032;9.410;2023-03-20T02:26:24;99190.63;;;5.44;100.00
71573;BME280;59408;51.032;9.410;2023-03-20T02:29:28;99194.03;;;5.50;100.00
71573;BME280;59408;51.032;9.410;2023-03-20T02:35:22;99180.09;;;5.56;100.00
71573;BME280;59408;51.032;9.410;2023-03-20T02:38:16;99177.59;;;5.60;100.00
71573;BME280;59408;51.032;9.410;2023-03-20T02:40:52;99183.22;;;5.63;100.00
71573;BME280;59408;51.032;9.410;2023-03-20T02:43:25;99188.81;;;5.67;100.00
71573;BME280;59408;51.032;9.410;2023-03-20T02:45:58;99181.06;;;5.88;100.00
71573;BME280;59408;51.032;9.410;2023-03-20T02:48:35;99182.97;;;5.87;100.00
71573;BME280;59408;51.032;9.410;2023-03-20T02:51:09;99184.88;;;5.87;100.00
71573;BME280;59408;51.032;9.410;2023-03-20T02:53:47;99184.06;;;5.86;100.00
71573;BME280;59408;51.032;9.410;2023-03-20T02:56:20;99197.28;;;5.88;100.00
71573;BME280;59408;51.032;9.410;2023-03-20T02:58:51;99194.59;;;5.88;100.00
71573;BME280;59408;51.032;9.410;2023-03-20T03:01:26;99198.78;;;5.94;100.00
71573;BME280;59408;51.032;9.410;2023-03-20T03:03:57;99193.06;;;5.95;100.00
71573;BME280;59408;51.032;9.410;2023-03-20T03:06:28;99191.16;;;5.96;100.00
71573;BME280;59408;51.032;9.410;2023-03-20T03:09:00;99192.75;;;5.97;100.00
71573;BME280;59408;51.032;9.410;2023-03-20T03:11:27;99202.53;;;6.20;100.00
71573;BME280;59408;51.032;9.410;2023-03-20T03:13:55;99202.28;;;6.30;100.00
71573;BME280;59408;51.032;9.410;2023-03-20T03:16:25;99212.59;;;6.42;100.00
71573;BME280;59408;51.032;9.410;2023-03-20T03:19:00;99209.56;;;6.66;100.00
71573;BME280;59408;51.032;9.410;2023-03-20T03:21:28;99209.41;;;6.62;100.00
71573;BME280;59408;51.032;9.410;2023-03-20T03:23:57;99217.34;;;6.59;100.00
71573;BME280;59408;51.032;9.410;2023-03-20T03:26:26;99210.31;;;6.58;100.00
71573;BME280;59408;51.032;9.410;2023-03-20T03:28:56;99212.84;;;6.54;100.00
71573;BME280;59408;51.032;9.410;2023-03-20T03:31:24;99209.69;;;6.61;100.00
71573;BME280;59408;51.032;9.410;2023-03-20T03:33:54;99212.59;;;6.64;100.00
71573;BME280;59408;51.032;9.410;2023-03-20T03:36:30;99209.09;;;6.64;100.00
71573;BME280;59408;51.032;9.410;2023-03-20T03:39:04;99211.59;;;6.60;100.00
71573;BME280;59408;51.032;9.410;2023-03-20T03:41:37;99204.94;;;6.66;100.00
71573;BME280;59408;51.032;9.410;2023-03-20T03:44:09;99206.59;;;6.76;100.00
71573;BME280;59408;51.032;9.410;2023-03-20T03:46:40;99213.19;;;6.83;100.00
71573;BME280;59408;51.032;9.410;2023-03-20T03:49:14;99211.78;;;6.86;100.00
71573;BME280;59408;51.032;9.410;2023-03-20T03:51:44;99211.47;;;6.87;100.00
71573;BME280;59408;51.032;9.410;2023-03-20T03:54:16;99216.59;;;6.89;100.00
71573;BME280;59408;51.032;9.410;2023-03-20T03:56:45;99215.19;;;6.92;100.00
71573;BME280;59408;51.032;9.410;2023-03-20T03:59:16;99214.53;;;6.95;100.00
71573;BME280;59408;51.032;9.410;2023-03-20T04:01:44;99218.25;;;6.99;100.00
71573;BME280;59408;51.032;9.410;2023-03-20T04:04:13;99223.53;;;7.04;100.00
71573;BME280;59408;51.032;9.410;2023-03-20T04:06:41;99219.72;;;7.05;100.00
71573;BME280;59408;51.032;9.410;2023-03-20T04:09:07;99227.53;;;7.06;100.00
71573;BME280;59408;51.032;9.410;2023-03-20T04:11:35;99237.59;;;7.06;100.00
71573;BME280;59408;51.032;9.410;2023-03-20T04:14:02;99232.16;;;7.06;100.00
71573;BME280;59408;51.032;9.410;2023-03-20T04:16:29;99238.06;;;7.08;100.00
71573;BME280;59408;51.032;9.410;2023-03-20T04:18:55;99245.91;;;7.09;100.00
71573;BME280;59408;51.032;9.410;2023-03-20T04:21:22;99240.47;;;7.09;100.00
71573;BME280;59408;51.032;9.410;2023-03-20T04:23:49;99243.50;;;7.08;100.00
71573;BME280;59408;51.032;9.410;2023-03-20T04:26:15;99238.69;;;7.05;100.00
71573;BME280;59408;51.032;9.410;2023-03-20T04:28:43;99240.59;;;7.04;100.00
71573;BME280;59408;51.032;9.410;2023-03-20T04:31:10;99246.31;;;7.03;100.00
71573;BME280;59408;51.032;9.410;2023-03-20T04:33:37;99257.69;;;7.05;100.00
71573;BME280;59408;51.032;9.410;2023-03-20T04:36:04;99254.47;;;7.03;100.00
71573;BME280;59408;51.032;9.410;2023-03-20T04:38:31;99253.50;;;6.99;100.00
71573;BME280;59408;51.032;9.410;2023-03-20T04:40:58;99259.22;;;6.97;100.00
71573;BME280;59408;51.032;9.410;2023-03-20T04:43:24;99257.31;;;6.98;100.00
71573;BME280;59408;51.032;9.410;2023-03-20T04:45:52;99264.47;;;6.94;100.00
71573;BME280;59408;51.032;9.410;2023-03-20T04:48:19;99270.00;;;6.88;100.00
71573;BME280;59408;51.032;9.410;2023-03-20T04:50:46;99262.19;;;6.87;100.00
71573;BME280;59408;51.032;9.410;2023-03-20T04:53:13;99263.91;;;6.83;100.00
71573;BME280;59408;51.032;9.410;2023-03-20T04:55:40;99259.13;;;6.80;100.00
71573;BME280;59408;51.032;9.410;2023-03-20T04:58:06;99258.31;;;6.79;100.00
71573;BME280;59408;51.032;9.410;2023-03-20T05:00:33;99254.00;;;6.78;100.00
71573;BME280;59408;51.032;9.410;2023-03-20T05:03:01;99248.56;;;6.78;100.00
71573;BME280;59408;51.032;9.410;2023-03-20T05:05:28;99247.28;;;6.76;100.00
71573;BME280;59408;51.032;9.410;2023-03-20T05:07:54;99244.56;;;6.76;100.00
71573;BME280;59408;51.032;9.410;2023-03-20T05:10:21;99240.38;;;6.70;100.00
71573;BME280;59408;51.032;9.410;2023-03-20T05:12:48;99243.69;;;6.67;100.00
71573;BME280;59408;51.032;9.410;2023-03-20T05:15:15;99240.97;;;6.67;100.00
71573;BME280;59408;51.032;9.410;2023-03-20T05:17:41;99232.38;;;6.65;100.00
71573;BME280;59408;51.032;9.410;2023-03-20T05:20:10;99231.25;;;6.66;100.00
71573;BME280;59408;51.032;9.410;2023-03-20T05:22:37;99235.88;;;6.65;100.00
71573;BME280;59408;51.032;9.410;2023-03-20T05:25:04;99223.13;;;6.66;100.00
71573;BME280;59408;51.032;9.410;2023-03-20T05:27:30;99225.81;;;6.66;100.00
71573;BME280;59408;51.032;9.410;2023-03-20T05:29:57;99214.69;;;6.67;100.00
71573;BME280;59408;51.032;9.410;2023-03-20T05:32:24;99211.97;;;6.67;100.00
71573;BME280;59408;51.032;9.410;2023-03-20T05:34:50;99215.78;;;6.66;100.00
71573;BME280;59408;51.032;9.410;2023-03-20T05:37:18;99211.47;;;6.65;100.00
71573;BME280;59408;51.032;9.410;2023-03-20T05:39:45;99212.28;;;6.66;100.00
71573;BME280;59408;51.032;9.410;2023-03-20T05:42:11;99220.09;;;6.67;100.00
71573;BME280;59408;51.032;9.410;2023-03-20T05:44:38;99220.59;;;6.69;100.00
71573;BME280;59408;51.032;9.410;2023-03-20T05:47:05;99215.19;;;6.69;100.00
71573;BME280;59408;51.032;9.410;2023-03-20T05:49:31;99223.81;;;6.71;100.00
71573;BME280;59408;51.032;9.410;2023-03-20T05:51:58;99228.94;;;6.73;100.00
71573;BME280;59408;51.032;9.410;2023-03-20T05:54:26;99222.41;;;6.74;100.00
71573;BME280;59408;51.032;9.410;2023-03-20T05:56:53;99230.53;;;6.74;100.00
71573;BME280;59408;51.032;9.410;2023-03-20T05:59:19;99235.63;;;6.75;100.00
71573;BME280;59408;51.032;9.410;2023-03-20T06:01:46;99236.94;;;6.78;100.00
71573;BME280;59408;51.032;9.410;2023-03-20T06:04:13;99231.81;;;6.76;100.00
71573;BME280;59408;51.032;9.410;2023-03-20T06:06:39;99236.31;;;6.81;100.00
71573;BME280;59408;51.032;9.410;2023-03-20T06:09:06;99229.00;;;6.81;100.00
71573;BME280;59408;51.032;9.410;2023-03-20T06:11:34;99241.91;;;6.84;100.00
71573;BME280;59408;51.032;9.410;2023-03-20T06:14:03;99240.00;;;6.85;100.00
71573;BME280;59408;51.032;9.410;2023-03-20T06:16:29;99246.22;;;6.85;100.00
71573;BME280;59408;51.032;9.410;2023-03-20T06:18:56;99249.44;;;6.87;100.00
71573;BME280;59408;51.032;9.410;2023-03-20T06:21:22;99244.81;;;6.88;100.00
71573;BME280;59408;51.032;9.410;2023-03-20T06:23:49;99236.38;;;6.89;100.00
71573;BME280;59408;51.032;9.410;2023-03-20T06:26:16;99231.75;;;6.90;100.00
71573;BME280;59408;51.032;9.410;2023-03-20T06:28:43;99224.59;;;6.94;100.00
71573;BME280;59408;51.032;9.410;2023-03-20T06:31:10;99225.09;;;6.96;100.00
71573;BME280;59408;51.032;9.410;2023-03-20T06:33:37;99230.38;;;7.01;100.00
71573;BME280;59408;51.032;9.410;2023-03-20T06:36:04;99226.88;;;7.01;100.00
71573;BME280;59408;51.032;9.410;2023-03-20T06:38:31;99232.78;;;7.03;100.00
71573;BME280;59408;51.032;9.410;2023-03-20T06:40:57;99232.31;;;7.01;100.00
71573;BME280;59408;51.032;9.410;2023-03-20T06:43:24;99240.44;;;7.01;100.00
71573;BME280;59408;51.032;9.410;2023-03-20T06:45:52;99245.53;;;7.02;100.00
71573;BME280;59408;51.032;9.410;2023-03-20T06:48:18;99245.53;;;7.02;100.00
71573;BME280;59408;51.032;9.410;2023-03-20T06:50:45;99244.41;;;7.03;100.00
71573;BME280;59408;51.032;9.410;2023-03-20T06:53:12;99247.63;;;7.05;100.00
71573;BME280;59408;51.032;9.410;2023-03-20T06:55:38;99240.28;;;7.06;100.00
71573;BME280;59408;51.032;9.410;2023-03-20T06:58:05;99246.72;;;7.10;100.00
71573;BME280;59408;51.032;9.410;2023-03-20T07:00:31;99253.72;;;7.11;100.00
71573;BME280;59408;51.032;9.410;2023-03-20T07:02:59;99249.88;;;7.12;100.00
71573;BME280;59408;51.032;9.410;2023-03-20T07:05:27;99262.34;;;7.13;100.00
71573;BME280;59408;51.032;9.410;2023-03-20T07:07:54;99253.91;;;7.14;100.00
71573;BME280;59408;51.032;9.410;2023-03-20T07:10:21;99268.28;;;7.15;100.00
71573;BME280;59408;51.032;9.410;2023-03-20T07:12:47;99267.28;;;7.11;100.00
71573;BME280;59408;51.032;9.410;2023-03-20T07:15:14;99284.34;;;7.11;100.00
71573;BME280;59408;51.032;9.410;2023-03-20T07:17:40;99278.13;;;7.11;100.00
71573;BME280;59408;51.032;9.410;2023-03-20T07:20:10;99274.94;;;7.09;100.00
71573;BME280;59408;51.032;9.410;2023-03-20T07:22:37;99278.13;;;7.11;100.00
71573;BME280;59408;51.032;9.410;2023-03-20T07:25:04;99281.16;;;7.09;100.00
71573;BME280;59408;51.032;9.410;2023-03-20T07:27:31;99268.41;;;7.10;100.00
71573;BME280;59408;51.032;9.410;2023-03-20T07:29:58;99284.03;;;7.13;100.00
71573;BME280;59408;51.032;9.410;2023-03-20T07:32:24;99289.47;;;7.13;100.00
71573;BME280;59408;51.032;9.410;2023-03-20T07:34:51;99295.69;;;7.13;100.00
71573;BME280;59408;51.032;9.410;2023-03-20T07:37:19;99289.47;;;7.13;100.00
71573;BME280;59408;51.032;9.410;2023-03-20T07:39:46;99287.88;;;7.12;100.00
71573;BME280;59408;51.032;9.410;2023-03-20T07:42:12;99288.66;;;7.12;100.00
71573;BME280;59408;51.032;9.410;2023-03-20T07:44:39;99283.88;;;7.09;100.00
71573;BME280;59408;51.032;9.410;2023-03-20T07:47:05;99286.25;;;7.11;100.00
71573;BME280;59408;51.032;9.410;2023-03-20T07:49:33;99288.56;;;7.17;100.00
71573;BME280;59408;51.032;9.410;2023-03-20T07:52:00;99284.91;;;7.22;100.00
71573;BME280;59408;51.032;9.410;2023-03-20T07:54:28;99283.19;;;7.26;100.00
71573;BME280;59408;51.032;9.410;2023-03-20T07:56:54;99281.44;;;7.30;100.00
71573;BME280;59408;51.032;9.410;2023-03-20T07:59:21;99279.75;;;7.34;100.00
71573;BME280;59408;51.032;9.410;2023-03-20T08:01:48;99281.38;;;7.44;100.00
71573;BME280;59408;51.032;9.410;2023-03-20T08:04:14;99286.81;;;7.44;100.00
71573;BME280;59408;51.032;9.410;2023-03-20T08:06:41;99285.41;;;7.46;100.00
71573;BME280;59408;51.032;9.410;2023-03-20T08:09:08;99290.19;;;7.49;100.00
71573;BME280;59408;51.032;9.410;2023-03-20T08:11:36;99292.44;;;7.56;100.00
71573;BME280;59408;51.032;9.410;2023-03-20T08:14:02;99300.66;;;7.65;100.00
71573;BME280;59408;51.032;9.410;2023-03-20T08:16:29;99296.06;;;7.74;100.00
71573;BME280;59408;51.032;9.410;2023-03-20T08:18:55;99298.97;;;7.86;100.00
71573;BME280;59408;51.032;9.410;2023-03-20T08:21:22;99291.81;;;7.98;100.00
71573;BME280;59408;51.032;9.410;2023-03-20T08:23:49;99298.88;;;8.08;100.00
71573;BME280;59408;51.032;9.410;2023-03-20T08:26:15;99303.22;;;8.18;100.00
71573;BME280;59408;51.032;9.410;2023-03-20T08:28:43;99303.53;;;8.16;100.00
71573;BME280;59408;51.032;9.410;2023-03-20T08:31:14;99295.06;;;8.18;100.00
71573;BME280;59408;51.032;9.410;2023-03-20T08:33:41;99300.84;;;8.25;100.00
71573;BME280;59408;51.032;9.410;2023-03-20T08:36:08;99299.41;;;8.27;100.00
71573;BME280;59408;51.032;9.410;2023-03-20T08:38:35;99297.97;;;8.38;100.00
71573;BME280;59408;51.032;9.410;2023-03-20T08:41:02;99310.00;;;8.37;100.00
71573;BME280;59408;51.032;9.410;2023-03-20T08:43:29;99303.91;;;8.49;100.00
71573;BME280;59408;51.032;9.410;2023-03-20T08:45:57;99303.78;;;8.63;100.00
71573;BME280;59408;51.032;9.410;2023-03-20T08:48:23;99306.81;;;8.70;100.00
71573;BME280;59408;51.032;9.410;2023-03-20T08:50:50;99311.13;;;8.88;100.00
71573;BME280;59408;51.032;9.410;2023-03-20T08:53:17;99304.72;;;8.93;100.00
71573;BME280;59408;51.032;9.410;2023-03-20T08:55:47;99304.25;;;8.91;100.00
71573;BME280;59408;51.032;9.410;2023-03-20T08:58:14;99304.06;;;8.96;100.00
71573;BME280;59408;51.032;9.410;2023-03-20T09:00:40;99308.41;;;8.97;100.00
71573;BME280;59408;51.032;9.410;2023-03-20T09:03:11;99310.94;;;8.93;100.00
71573;BME280;59408;51.032;9.410;2023-03-20T09:05:38;99314.16;;;8.78;100.00
71573;BME280;59408;51.032;9.410;2023-03-20T09:08:05;99317.69;;;8.87;100.00
71573;BME280;59408;51.032;9.410;2023-03-20T09:10:32;99314.63;;;8.97;100.00
71573;BME280;59408;51.032;9.410;2023-03-20T09:12:59;99313.69;;;9.19;100.00
71573;BME280;59408;51.032;9.410;2023-03-20T09:15:25;99316.84;;;9.30;100.00
71573;BME280;59408;51.032;9.410;2023-03-20T09:17:52;99307.53;;;9.48;100.00
71573;BME280;59408;51.032;9.410;2023-03-20T09:20:20;99313.13;;;9.52;100.00
71573;BME280;59408;51.032;9.410;2023-03-20T09:22:47;99307.50;;;9.57;100.00
71573;BME280;59408;51.032;9.410;2023-03-20T09:25:13;99308.00;;;9.50;100.00
71573;BME280;59408;51.032;9.410;2023-03-20T09:27:40;99318.03;;;9.67;100.00
71573;BME280;59408;51.032;9.410;2023-03-20T09:30:08;99319.94;;;9.75;99.46
71573;BME280;59408;51.032;9.410;2023-03-20T09:32:35;99321.56;;;9.67;97.28
71573;BME280;59408;51.032;9.410;2023-03-20T09:35:03;99323.31;;;9.80;98.70
71573;BME280;59408;51.032;9.410;2023-03-20T09:37:31;99331.19;;;9.73;96.89
71573;BME280;59408;51.032;9.410;2023-03-20T09:39:58;99328.75;;;9.80;97.25
71573;BME280;59408;51.032;9.410;2023-03-20T09:42:33;99338.38;;;9.78;94.24
71573;BME280;59408;51.032;9.410;2023-03-20T09:45:08;99340.47;;;9.72;94.43
71573;BME280;59408;51.032;9.410;2023-03-20T09:47:44;99334.97;;;9.90;94.40
71573;BME280;59408;51.032;9.410;2023-03-20T09:50:20;99338.53;;;10.11;91.64
71573;BME280;59408;51.032;9.410;2023-03-20T09:52:56;99341.47;;;10.35;92.51
71573;BME280;59408;51.032;9.410;2023-03-20T09:55:30;99332.53;;;10.26;92.69
71573;BME280;59408;51.032;9.410;2023-03-20T09:58:04;99337.88;;;10.14;88.91
71573;BME280;59408;51.032;9.410;2023-03-20T10:00:33;99337.59;;;10.07;90.04
71573;BME280;59408;51.032;9.410;2023-03-20T10:03:03;99339.28;;;9.91;88.94
71573;BME280;59408;51.032;9.410;2023-03-20T10:05:34;99339.66;;;9.80;88.72
71573;BME280;59408;51.032;9.410;2023-03-20T10:08:05;99350.88;;;9.79;88.59
71573;BME280;59408;51.032;9.410;2023-03-20T10:10:41;99351.16;;;9.86;87.61
71573;BME280;59408;51.032;9.410;2023-03-20T10:13:25;99348.69;;;10.02;87.75
71573;BME280;59408;51.032;9.410;2023-03-20T10:16:00;99340.66;;;10.05;86.08
71573;BME280;59408;51.032;9.410;2023-03-20T10:18:34;99342.75;;;10.08;85.18
71573;BME280;59408;51.032;9.410;2023-03-20T10:21:05;99343.53;;;10.38;85.65
71573;BME280;59408;51.032;9.410;2023-03-20T10:23:41;99339.22;;;10.58;85.10
71573;BME280;59408;51.032;9.410;2023-03-20T10:26:10;99337.44;;;10.91;83.81
71573;BME280;59408;51.032;9.410;2023-03-20T10:28:41;99342.81;;;11.00;81.74
71573;BME280;59408;51.032;9.410;2023-03-20T10:31:21;99341.47;;;10.85;81.54
71573;BME280;59408;51.032;9.410;2023-03-20T10:34:03;99336.66;;;11.03;82.39
71573;BME280;59408;51.032;9.410;2023-03-20T10:36:43;99330.38;;;10.90;81.27
71573;BME280;59408;51.032;9.410;2023-03-20T10:39:19;99336.81;;;10.86;79.25
71573;BME280;59408;51.032;9.410;2023-03-20T10:41:52;99329.56;;;10.90;79.80
71573;BME280;59408;51.032;9.410;2023-03-20T10:44:26;99329.09;;;11.42;79.44
71573;BME280;59408;51.032;9.410;2023-03-20T10:46:58;99325.66;;;11.32;79.01
71573;BME280;59408;51.032;9.410;2023-03-20T10:49:30;99321.69;;;11.42;78.09
71573;BME280;59408;51.032;9.410;2023-03-20T10:52:03;99322.41;;;11.18;77.56
71573;BME280;59408;51.032;9.410;2023-03-20T10:54:34;99318.97;;;10.88;79.35
71573;BME280;59408;51.032;9.410;2023-03-20T10:57:03;99311.91;;;11.08;79.01
71573;BME280;59408;51.032;9.410;2023-03-20T10:59:33;99313.00;;;11.28;77.67
71573;BME280;59408;51.032;9.410;2023-03-20T11:02:08;99309.75;;;11.14;77.56
71573;BME280;59408;51.032;9.410;2023-03-20T11:04:34;99309.66;;;11.10;79.04
71573;BME280;59408;51.032;9.410;2023-03-20T11:07:07;99312.47;;;10.81;78.32
71573;BME280;59408;51.032;9.410;2023-03-20T11:09:37;99318.69;;;10.60;79.86
71573;BME280;59408;51.032;9.410;2023-03-20T11:12:04;99316.13;;;10.35;80.57
71573;BME280;59408;51.032;9.410;2023-03-20T11:14:33;99310.91;;;10.21;79.66
71573;BME280;59408;51.032;9.410;2023-03-20T11:17:01;99320.69;;;10.22;82.02
71573;BME280;59408;51.032;9.410;2023-03-20T11:19:32;99318.22;;;10.29;80.52
71573;BME280;59408;51.032;9.410;2023-03-20T11:22:05;99309.91;;;10.55;79.97
71573;BME280;59408;51.032;9.410;2023-03-20T11:24:35;99300.69;;;10.89;79.09
71573;BME280;59408;51.032;9.410;2023-03-20T11:27:08;99303.47;;;10.80;78.31
71573;BME280;59408;51.032;9.410;2023-03-20T11:29:35;99293.47;;;10.84;77.09
71573;BME280;59408;51.032;9.410;2023-03-20T11:32:10;99297.81;;;10.65;77.67
71573;BME280;59408;51.032;9.410;2023-03-20T11:34:40;99289.84;;;10.80;76.81
71573;BME280;59408;51.032;9.410;2023-03-20T11:37:22;99286.09;;;10.85;79.17
71573;BME280;59408;51.032;9.410;2023-03-20T11:39:55;99300.47;;;10.94;77.15
71573;BME280;59408;51.032;9.410;2023-03-20T11:42:25;99298.94;;;10.63;76.59
71573;BME280;59408;51.032;9.410;2023-03-20T11:44:57;99304.75;;;10.83;76.20
71573;BME280;59408;51.032;9.410;2023-03-20T11:47:26;99288.59;;;10.69;74.35
71573;BME280;59408;51.032;9.410;2023-03-20T11:49:54;99287.31;;;10.75;73.45
71573;BME280;59408;51.032;9.410;2023-03-20T11:52:24;99282.97;;;10.74;74.26
71573;BME280;59408;51.032;9.410;2023-03-20T11:54:54;99277.31;;;10.79;73.89
71573;BME280;59408;51.032;9.410;2023-03-20T11:57:30;99276.97;;;11.02;73.03
71573;BME280;59408;51.032;9.410;2023-03-20T12:00:01;99277.81;;;10.93;71.38
71573;BME280;59408;51.032;9.410;2023-03-20T12:02:29;99276.69;;;10.94;70.77
71573;BME280;59408;51.032;9.410;2023-03-20T12:04:58;99285.22;;;10.93;70.74
71573;BME280;59408;51.032;9.410;2023-03-20T12:07:28;99274.44;;;10.96;72.05
71573;BME280;59408;51.032;9.410;2023-03-20T12:09:58;99268.19;;;11.29;70.94
71573;BME280;59408;51.032;9.410;2023-03-20T12:12:35;99270.81;;;11.38;69.20
71573;BME280;59408;51.032;9.410;2023-03-20T12:15:09;99268.97;;;11.29;71.01
71573;BME280;59408;51.032;9.410;2023-03-20T12:17:45;99265.47;;;11.29;70.73
71573;BME280;59408;51.032;9.410;2023-03-20T12:20:22;99253.50;;;11.33;70.18
71573;BME280;59408;51.032;9.410;2023-03-20T12:22:57;99259.63;;;11.30;69.65
71573;BME280;59408;51.032;9.410;2023-03-20T12:25:26;99269.09;;;11.33;69.34
71573;BME280;59408;51.032;9.410;2023-03-20T12:28:02;99252.41;;;11.47;69.75
71573;BME280;59408;51.032;9.410;2023-03-20T12:30:37;99261.16;;;11.52;68.22
71573;BME280;59408;51.032;9.410;2023-03-20T12:33:11;99245.13;;;11.51;69.86
71573;BME280;59408;51.032;9.410;2023-03-20T12:35:44;99234.19;;;11.51;68.12
71573;BME280;59408;51.032;9.410;2023-03-20T12:38:20;99237.94;;;11.58;68.31
71573;BME280;59408;51.032;9.410;2023-03-20T12:40:50;99236.47;;;11.61;67.30
71573;BME280;59408;51.032;9.410;2023-03-20T12:43:24;99241.47;;;11.59;67.42
71573;BME280;59408;51.032;9.410;2023-03-20T12:45:57;99237.03;;;11.66;67.93
71573;BME280;59408;51.032;9.410;2023-03-20T12:48:39;99237.16;;;11.94;68.61
71573;BME280;59408;51.032;9.410;2023-03-20T12:51:13;99225.06;;;12.07;66.82
71573;BME280;59408;51.032;9.410;2023-03-20T12:53:51;99228.16;;;12.18;66.43
71573;BME280;59408;51.032;9.410;2023-03-20T12:56:30;99227.72;;;12.16;65.31
71573;BME280;59408;51.032;9.410;2023-03-20T12:59:05;99217.41;;;12.13;65.84
71573;BME280;59408;51.032;9.410;2023-03-20T13:01:38;99216.47;;;12.45;67.18
71573;BME280;59408;51.032;9.410;2023-03-20T13:04:28;99211.91;;;12.49;67.54
71573;BME280;59408;51.032;9.410;2023-03-20T13:07:02;99203.28;;;12.11;67.39
71573;BME280;59408;51.032;9.410;2023-03-20T13:12:35;99202.63;;;12.14;66.96
71573;BME280;59408;51.032;9.410;2023-03-20T13:15:17;99198.53;;;12.08;67.87
71573;BME280;59408;51.032;9.410;2023-03-20T13:17:49;99192.16;;;12.04;66.95
71573;BME280;59408;51.032;9.410;2023-03-20T13:20:24;99199.53;;;12.03;65.37